createdAt,value
2019-04-30T00:01:19.016Z,2.50
2019-04-30T00:03:59.260Z,2.98
2019-04-30T00:06:27.284Z,2.47
2019-04-30T00:08:57.661Z,2.45
2019-04-30T00:11:28.546Z,3.02
2019-04-30T00:13:58.830Z,3.02
2019-04-30T00:16:30.975Z,2.47
2019-04-30T00:19:00.874Z,3.10
2019-04-30T00:21:28.996Z,2.90
2019-04-30T00:24:00.900Z,2.95
2019-04-30T00:26:28.357Z,3.02
2019-04-30T00:28:57.159Z,3.05
2019-04-30T00:31:27.414Z,2.90
2019-04-30T00:33:57.921Z,3.25
2019-04-30T00:36:33.496Z,3.30
2019-04-30T00:38:57.592Z,3.33
2019-04-30T00:41:26.398Z,6.08
2019-04-30T00:43:55.252Z,7.25
2019-04-30T00:46:27.262Z,6.70
2019-04-30T00:48:56.824Z,6.40
2019-04-30T00:51:26.197Z,5.55
2019-04-30T00:53:55.799Z,5.97
2019-04-30T00:56:28.137Z,5.87
2019-04-30T00:58:57.743Z,5.95
2019-04-30T01:01:39.041Z,5.85
2019-04-30T01:04:08.472Z,4.05
2019-04-30T01:06:37.272Z,4.00
2019-04-30T01:09:08.711Z,3.95
2019-04-30T01:11:39.788Z,3.83
2019-04-30T01:14:07.301Z,4.10
2019-04-30T01:16:36.193Z,4.67
2019-04-30T01:19:05.732Z,4.15
2019-04-30T01:21:39.626Z,3.62
2019-04-30T01:24:06.166Z,3.70
2019-04-30T01:26:35.150Z,3.65
2019-04-30T01:29:04.300Z,3.37
2019-04-30T01:31:37.511Z,3.95
2019-04-30T01:34:05.064Z,3.40
2019-04-30T01:36:33.991Z,3.75
2019-04-30T01:39:02.899Z,3.80
2019-04-30T01:41:31.809Z,4.15
2019-04-30T01:44:03.797Z,4.10
2019-04-30T01:46:31.258Z,3.65
2019-04-30T01:49:00.063Z,3.65
2019-04-30T01:51:28.972Z,3.33
2019-04-30T01:53:59.393Z,3.72
2019-04-30T01:56:30.042Z,3.85
2019-04-30T01:59:00.504Z,3.85
2019-04-30T02:01:34.122Z,4.25
2019-04-30T02:04:03.131Z,3.87
2019-04-30T02:06:32.143Z,3.67
2019-04-30T02:09:00.947Z,3.83
2019-04-30T02:11:29.754Z,3.60
2019-04-30T02:13:59.139Z,3.62
2019-04-30T02:16:29.033Z,3.27
2019-04-30T02:18:59.667Z,3.35
2019-04-30T02:21:30.041Z,3.72
2019-04-30T02:23:59.099Z,3.75
2019-04-30T02:26:28.605Z,3.70
2019-04-30T02:28:59.308Z,3.67
2019-04-30T02:31:30.688Z,3.72
2019-04-30T02:34:06.403Z,3.90
2019-04-30T02:36:42.792Z,3.72
2019-04-30T02:39:11.714Z,3.30
2019-04-30T02:41:41.420Z,3.37
2019-04-30T02:44:11.249Z,3.92
2019-04-30T02:46:41.811Z,3.80
2019-04-30T02:49:12.030Z,3.62
2019-04-30T02:51:42.875Z,4.05
2019-04-30T02:54:20.160Z,3.90
2019-04-30T02:56:50.665Z,3.80
2019-04-30T02:59:20.233Z,4.00
2019-04-30T03:01:51.096Z,3.55
2019-04-30T03:04:19.916Z,3.20
2019-04-30T03:06:50.297Z,3.58
2019-04-30T03:09:20.267Z,3.30
2019-04-30T03:11:50.119Z,3.10
2019-04-30T03:14:20.118Z,3.55
2019-04-30T03:16:53.163Z,3.45
2019-04-30T03:19:32.483Z,3.10
2019-04-30T03:22:13.945Z,3.95
2019-04-30T03:24:42.978Z,3.25
2019-04-30T03:27:12.180Z,3.40
2019-04-30T03:29:41.111Z,3.55
2019-04-30T03:32:13.262Z,3.58
2019-04-30T03:34:42.138Z,4.35
2019-04-30T03:37:10.931Z,4.53
2019-04-30T03:39:40.197Z,4.05
2019-04-30T03:42:09.953Z,5.20
2019-04-30T03:44:40.148Z,5.72
2019-04-30T03:47:11.007Z,5.70
2019-04-30T03:49:40.207Z,5.75
2019-04-30T03:52:12.774Z,4.97
2019-04-30T03:54:40.773Z,5.60
2019-04-30T03:57:10.711Z,4.83
2019-04-30T03:59:40.097Z,4.70
2019-04-30T04:02:23.009Z,4.25
2019-04-30T04:05:01.136Z,3.52
2019-04-30T04:07:31.877Z,3.08
2019-04-30T04:10:10.085Z,3.47
2019-04-30T04:12:39.522Z,3.47
2019-04-30T04:15:10.463Z,3.50
2019-04-30T04:17:39.731Z,3.55
2019-04-30T04:20:10.606Z,3.10
2019-04-30T04:22:40.278Z,4.00
2019-04-30T04:25:12.732Z,3.15
2019-04-30T04:27:39.945Z,3.60
2019-04-30T04:30:10.570Z,3.20
2019-04-30T04:32:40.578Z,3.47
2019-04-30T04:35:12.775Z,3.87
2019-04-30T04:37:41.780Z,3.40
2019-04-30T04:40:11.270Z,3.67
2019-04-30T04:42:40.129Z,3.60
2019-04-30T04:45:09.937Z,3.50
2019-04-30T04:47:40.222Z,3.35
2019-04-30T04:50:10.718Z,3.53
2019-04-30T04:52:40.939Z,3.00
2019-04-30T04:55:10.891Z,3.30
2019-04-30T04:57:40.193Z,3.60
2019-04-30T05:00:10.714Z,3.40
2019-04-30T05:02:49.575Z,3.70
2019-04-30T05:05:19.410Z,3.30
2019-04-30T05:07:48.690Z,3.15
2019-04-30T05:10:19.220Z,3.67
2019-04-30T05:12:50.677Z,3.77
2019-04-30T05:15:19.442Z,3.02
2019-04-30T05:17:49.609Z,3.40
2019-04-30T05:20:19.426Z,3.42
2019-04-30T05:22:48.880Z,3.10
2019-04-30T05:25:18.716Z,2.80
2019-04-30T05:27:48.850Z,3.17
2019-04-30T05:30:19.874Z,3.15
2019-04-30T05:32:50.437Z,3.40
2019-04-30T05:35:19.227Z,2.72
2019-04-30T05:37:49.509Z,3.05
2019-04-30T05:40:19.010Z,3.27
2019-04-30T05:42:49.667Z,3.45
2019-04-30T05:45:19.331Z,3.35
2019-04-30T05:47:50.174Z,3.08
2019-04-30T05:50:19.972Z,3.20
2019-04-30T05:52:49.375Z,3.40
2019-04-30T05:55:19.765Z,3.40
2019-04-30T05:57:55.880Z,3.37
2019-04-30T06:00:19.754Z,3.00
2019-04-30T06:02:49.709Z,3.15
2019-04-30T06:05:18.973Z,3.42
2019-04-30T06:07:51.560Z,2.85
2019-04-30T06:10:29.442Z,3.25
2019-04-30T06:13:09.777Z,2.75
2019-04-30T06:15:40.433Z,2.95
2019-04-30T06:18:13.405Z,3.05
2019-04-30T06:20:40.802Z,2.92
2019-04-30T06:23:09.769Z,2.62
2019-04-30T06:25:55.719Z,3.25
2019-04-30T06:28:09.710Z,3.67
2019-04-30T06:30:39.702Z,3.10
2019-04-30T06:33:09.280Z,2.70
2019-04-30T06:35:39.800Z,2.87
2019-04-30T06:38:08.719Z,3.35
2019-04-30T06:40:39.141Z,2.70
2019-04-30T06:43:09.112Z,3.17
2019-04-30T06:45:38.846Z,3.37
2019-04-30T06:48:08.984Z,2.52
2019-04-30T06:50:39.289Z,3.12
2019-04-30T06:53:09.321Z,2.80
2019-04-30T06:55:39.275Z,2.98
2019-04-30T06:58:14.685Z,2.87
2019-04-30T07:00:42.058Z,3.47
2019-04-30T07:03:10.964Z,3.87
2019-04-30T07:05:39.771Z,2.90
2019-04-30T07:08:36.154Z,3.10
2019-04-30T07:11:15.144Z,3.42
2019-04-30T07:13:45.690Z,3.02
2019-04-30T07:16:14.480Z,3.40
2019-04-30T07:18:43.403Z,3.30
2019-04-30T07:21:12.315Z,2.98
2019-04-30T07:23:41.116Z,3.10
2019-04-30T07:26:13.838Z,3.52
2019-04-30T07:28:46.952Z,3.40
2019-04-30T07:31:14.435Z,3.15
2019-04-30T07:33:41.545Z,6.95
2019-04-30T07:36:10.469Z,6.33
2019-04-30T07:38:45.021Z,8.45
2019-04-30T07:41:09.817Z,3.70
2019-04-30T07:43:39.484Z,6.37
2019-04-30T07:46:09.634Z,5.03
2019-04-30T07:48:40.198Z,3.22
2019-04-30T07:51:10.350Z,3.10
2019-04-30T07:53:40.454Z,3.17
2019-04-30T07:56:24.007Z,3.65
2019-04-30T07:58:40.155Z,3.22
2019-04-30T08:01:10.371Z,3.52
2019-04-30T08:03:50.687Z,3.77
2019-04-30T08:06:22.366Z,3.50
2019-04-30T08:08:53.020Z,3.50
2019-04-30T08:11:26.091Z,3.60
2019-04-30T08:13:52.012Z,3.12
2019-04-30T08:16:21.224Z,3.75
2019-04-30T08:18:50.046Z,3.35
2019-04-30T08:21:19.135Z,3.33
2019-04-30T08:23:48.985Z,3.05
2019-04-30T08:26:18.736Z,4.37
2019-04-30T08:28:48.782Z,5.47
2019-04-30T08:31:19.551Z,3.27
2019-04-30T08:33:49.079Z,3.58
2019-04-30T08:36:19.684Z,2.87
2019-04-30T08:38:49.534Z,3.25
2019-04-30T08:41:19.308Z,3.10
2019-04-30T08:43:49.631Z,3.20
2019-04-30T08:46:19.147Z,3.80
2019-04-30T08:48:51.656Z,3.45
2019-04-30T08:51:19.264Z,3.35
2019-04-30T08:53:48.717Z,2.98
2019-04-30T08:56:21.601Z,3.42
2019-04-30T08:58:49.070Z,3.45
2019-04-30T09:01:20.948Z,3.83
2019-04-30T09:03:51.335Z,3.62
2019-04-30T09:06:22.221Z,3.20
2019-04-30T09:08:51.720Z,3.10
2019-04-30T09:11:27.409Z,3.10
2019-04-30T09:13:51.189Z,3.33
2019-04-30T09:16:20.200Z,3.35
2019-04-30T09:18:49.472Z,3.85
2019-04-30T09:21:18.758Z,3.52
2019-04-30T09:23:51.930Z,3.67
2019-04-30T09:26:18.698Z,2.98
2019-04-30T09:28:49.426Z,3.08
2019-04-30T09:31:19.805Z,3.30
2019-04-30T09:33:49.248Z,3.25
2019-04-30T09:36:20.602Z,2.80
2019-04-30T09:38:48.768Z,3.20
2019-04-30T09:41:19.283Z,2.92
2019-04-30T09:43:49.385Z,2.72
2019-04-30T09:46:26.302Z,3.10
2019-04-30T09:48:50.687Z,3.62
2019-04-30T09:51:20.620Z,3.00
2019-04-30T09:53:58.817Z,2.83
2019-04-30T09:56:20.633Z,2.60
2019-04-30T09:58:49.441Z,2.55
2019-04-30T10:01:18.331Z,2.85
2019-04-30T10:03:50.297Z,3.00
2019-04-30T10:06:18.956Z,2.77
2019-04-30T10:08:50.935Z,3.15
2019-04-30T10:11:19.707Z,2.75
2019-04-30T10:13:48.624Z,3.33
2019-04-30T10:16:30.828Z,3.30
2019-04-30T10:19:01.362Z,3.30
2019-04-30T10:21:30.386Z,3.45
2019-04-30T10:24:12.561Z,3.02
2019-04-30T10:26:30.247Z,3.20
2019-04-30T10:29:00.382Z,3.27
2019-04-30T10:31:29.390Z,2.98
2019-04-30T10:33:58.680Z,3.30
2019-04-30T10:36:29.441Z,2.98
2019-04-30T10:38:59.516Z,3.00
2019-04-30T10:41:28.866Z,3.02
2019-04-30T10:43:59.151Z,2.85
2019-04-30T10:46:28.265Z,2.70
2019-04-30T10:48:57.248Z,2.95
2019-04-30T10:51:28.734Z,2.60
2019-04-30T10:53:59.039Z,2.80
2019-04-30T10:56:29.170Z,3.17
2019-04-30T10:58:58.065Z,3.17
2019-04-30T11:01:29.058Z,2.90
2019-04-30T11:03:57.459Z,2.87
2019-04-30T11:06:26.388Z,2.80
2019-04-30T11:08:55.290Z,2.80
2019-04-30T11:11:24.201Z,2.65
2019-04-30T11:13:53.108Z,2.50
2019-04-30T11:16:21.890Z,2.92
2019-04-30T11:18:50.839Z,2.75
2019-04-30T11:21:20.122Z,3.12
2019-04-30T11:23:49.526Z,2.80
2019-04-30T11:26:19.107Z,3.22
2019-04-30T11:28:48.536Z,3.08
2019-04-30T11:31:25.324Z,2.87
2019-04-30T11:33:56.650Z,2.98
2019-04-30T11:36:26.069Z,2.92
2019-04-30T11:38:54.873Z,3.00
2019-04-30T11:41:30.838Z,2.62
2019-04-30T11:43:54.327Z,3.20
2019-04-30T11:46:29.581Z,2.75
2019-04-30T11:48:58.714Z,2.70
2019-04-30T11:51:29.480Z,2.87
2019-04-30T11:53:59.401Z,2.72
2019-04-30T11:56:28.586Z,2.72
2019-04-30T11:58:58.918Z,2.85
2019-04-30T12:01:29.678Z,2.65
2019-04-30T12:03:59.799Z,2.42
2019-04-30T12:06:28.925Z,3.17
2019-04-30T12:08:59.456Z,2.65
2019-04-30T12:11:29.996Z,2.27
2019-04-30T12:13:58.821Z,2.90
2019-04-30T12:16:28.564Z,2.77
2019-04-30T12:19:00.452Z,2.58
2019-04-30T12:21:28.311Z,2.62
2019-04-30T12:23:56.702Z,2.40
2019-04-30T12:26:25.611Z,2.47
2019-04-30T12:28:54.523Z,2.70
2019-04-30T12:31:23.324Z,2.62
2019-04-30T12:33:52.234Z,2.62
2019-04-30T12:36:21.145Z,2.40
2019-04-30T12:38:50.047Z,2.12
2019-04-30T12:41:18.959Z,3.02
2019-04-30T12:43:47.867Z,2.50
2019-04-30T12:46:18.995Z,2.95
2019-04-30T12:48:51.601Z,2.80
2019-04-30T12:51:45.613Z,2.52
2019-04-30T12:54:12.253Z,2.80
2019-04-30T12:56:42.782Z,3.00
2019-04-30T12:59:11.689Z,2.70
2019-04-30T13:01:40.615Z,2.83
2019-04-30T13:04:09.896Z,2.90
2019-04-30T13:06:39.319Z,3.33
2019-04-30T13:09:10.838Z,2.90
2019-04-30T13:11:41.165Z,3.15
2019-04-30T13:14:11.392Z,2.95
2019-04-30T13:16:40.820Z,3.00
2019-04-30T13:19:09.621Z,2.52
2019-04-30T13:21:39.537Z,3.05
2019-04-30T13:24:08.721Z,3.00
2019-04-30T13:26:39.520Z,2.98
2019-04-30T13:29:09.755Z,2.98
2019-04-30T13:31:40.250Z,2.80
2019-04-30T13:34:25.993Z,2.95
2019-04-30T13:36:54.898Z,2.98
2019-04-30T13:39:29.283Z,3.27
2019-04-30T13:42:15.954Z,3.30
2019-04-30T13:44:39.386Z,3.50
2019-04-30T13:47:10.727Z,3.08
2019-04-30T13:49:39.604Z,3.40
2019-04-30T13:52:08.713Z,3.35
2019-04-30T13:54:37.622Z,3.35
2019-04-30T13:57:06.428Z,3.22
2019-04-30T13:59:35.231Z,3.20
2019-04-30T14:02:04.445Z,3.10
2019-04-30T14:04:34.892Z,3.10
2019-04-30T14:07:08.302Z,2.90
2019-04-30T14:09:37.209Z,2.77
2019-04-30T14:12:06.218Z,3.70
2019-04-30T14:14:35.126Z,3.42
2019-04-30T14:17:04.163Z,3.15
2019-04-30T14:19:33.053Z,3.10
2019-04-30T14:22:01.954Z,3.02
2019-04-30T14:24:30.755Z,3.45
2019-04-30T14:26:59.663Z,3.17
2019-04-30T14:29:30.220Z,3.12
2019-04-30T14:32:01.097Z,3.20
2019-04-30T14:34:29.971Z,2.80
2019-04-30T14:36:59.386Z,2.95
2019-04-30T14:39:29.153Z,3.10
2019-04-30T14:42:00.172Z,3.05
2019-04-30T14:44:31.664Z,2.90
2019-04-30T14:47:05.929Z,2.80
2019-04-30T14:49:36.819Z,3.00
2019-04-30T14:52:06.242Z,2.90
2019-04-30T14:54:36.790Z,2.95
2019-04-30T14:57:08.002Z,3.67
2019-04-30T15:02:15.895Z,3.55
2019-04-30T15:04:44.905Z,3.02
2019-04-30T15:07:13.711Z,2.65
2019-04-30T15:09:42.620Z,3.10
2019-04-30T15:12:11.526Z,3.08
2019-04-30T15:14:41.043Z,2.83
2019-04-30T15:17:11.287Z,2.67
2019-04-30T15:19:40.276Z,2.90
2019-04-30T15:22:09.206Z,2.87
2019-04-30T15:24:39.748Z,2.80
2019-04-30T15:27:09.246Z,3.45
2019-04-30T15:29:39.167Z,2.80
2019-04-30T15:32:08.732Z,2.87
2019-04-30T15:34:40.818Z,2.92
2019-04-30T15:37:18.650Z,2.70
2019-04-30T15:39:40.170Z,2.95
2019-04-30T15:42:09.576Z,3.17
2019-04-30T15:44:45.333Z,2.90
2019-04-30T15:47:09.299Z,3.00
2019-04-30T15:49:38.246Z,3.08
2019-04-30T15:52:08.989Z,2.85
2019-04-30T15:54:39.227Z,3.30
2019-04-30T15:57:08.904Z,2.90
2019-04-30T15:59:39.608Z,2.90
2019-04-30T16:02:16.187Z,3.30
2019-04-30T16:05:04.952Z,3.02
2019-04-30T16:07:35.189Z,3.25
2019-04-30T16:10:09.727Z,3.08
2019-04-30T16:12:48.867Z,3.60
2019-04-30T16:15:19.206Z,3.12
2019-04-30T16:17:49.613Z,3.33
2019-04-30T16:20:18.463Z,2.70
2019-04-30T16:22:49.253Z,2.70
2019-04-30T16:25:19.383Z,3.10
2019-04-30T16:27:48.661Z,2.42
2019-04-30T16:30:19.564Z,2.60
2019-04-30T16:32:50.747Z,2.85
2019-04-30T16:35:19.712Z,3.10
2019-04-30T16:37:49.632Z,3.33
2019-04-30T16:40:19.046Z,3.12
2019-04-30T16:42:49.025Z,3.17
2019-04-30T16:45:19.473Z,2.67
2019-04-30T16:47:48.825Z,3.35
2019-04-30T16:50:18.792Z,3.52
2019-04-30T16:52:49.710Z,3.37
2019-04-30T16:55:18.520Z,3.42
2019-04-30T16:57:49.588Z,2.92
2019-04-30T17:00:20.156Z,2.98
2019-04-30T17:02:50.771Z,3.80
2019-04-30T17:05:21.721Z,2.95
2019-04-30T17:07:54.926Z,3.27
2019-04-30T17:10:39.372Z,3.22
2019-04-30T17:13:25.491Z,3.30
2019-04-30T17:15:55.939Z,3.00
2019-04-30T17:18:24.842Z,3.12
2019-04-30T17:20:53.649Z,3.10
2019-04-30T17:23:24.290Z,3.02
2019-04-30T17:25:53.102Z,3.40
2019-04-30T17:28:22.130Z,3.60
2019-04-30T17:30:51.120Z,3.70
2019-04-30T17:33:20.035Z,3.10
2019-04-30T17:35:49.849Z,3.08
2019-04-30T17:38:18.867Z,3.33
2019-04-30T17:40:49.629Z,3.00
2019-04-30T17:43:18.218Z,3.62
2019-04-30T17:45:49.172Z,3.47
2019-04-30T17:48:17.570Z,3.17
2019-04-30T17:50:46.477Z,3.65
2019-04-30T17:53:15.388Z,4.12
2019-04-30T17:55:44.480Z,4.10
2019-04-30T17:58:13.303Z,4.60
2019-04-30T18:00:43.718Z,3.95
2019-04-30T18:03:12.563Z,4.00
2019-04-30T18:05:41.562Z,4.25
2019-04-30T18:08:12.298Z,3.75
2019-04-30T18:10:41.521Z,3.87
2019-04-30T18:13:10.331Z,3.47
2019-04-30T18:15:39.244Z,3.25
2019-04-30T18:18:15.517Z,3.30
2019-04-30T18:20:56.918Z,3.75
2019-04-30T18:23:30.014Z,3.20
2019-04-30T18:26:03.201Z,3.52
2019-04-30T18:28:32.128Z,3.87
2019-04-30T18:31:00.939Z,3.30
2019-04-30T18:33:29.842Z,3.65
2019-04-30T18:35:59.709Z,3.77
2019-04-30T18:38:29.273Z,4.15
2019-04-30T18:40:59.544Z,4.22
2019-04-30T18:43:28.789Z,4.70
2019-04-30T18:45:57.859Z,4.50
2019-04-30T18:48:26.663Z,4.33
2019-04-30T18:50:55.575Z,4.20
2019-04-30T18:53:26.015Z,3.80
2019-04-30T18:55:54.821Z,4.22
2019-04-30T18:58:36.528Z,4.62
2019-04-30T19:00:54.377Z,3.83
2019-04-30T19:03:23.282Z,4.97
2019-04-30T19:05:53.830Z,4.35
2019-04-30T19:08:27.139Z,3.70
2019-04-30T19:11:09.759Z,3.98
2019-04-30T19:13:51.134Z,3.90
2019-04-30T19:16:41.899Z,4.20
2019-04-30T19:19:16.804Z,4.22
2019-04-30T19:21:45.717Z,3.92
2019-04-30T19:24:14.723Z,4.00
2019-04-30T19:26:43.528Z,4.40
2019-04-30T19:29:12.338Z,4.37
2019-04-30T19:31:41.346Z,4.60
2019-04-30T19:34:10.149Z,5.08
2019-04-30T19:36:40.747Z,4.80
2019-04-30T19:39:10.130Z,4.37
2019-04-30T19:41:38.922Z,4.22
2019-04-30T19:44:07.842Z,4.60
2019-04-30T19:46:36.634Z,5.03
2019-04-30T19:49:05.540Z,4.65
2019-04-30T19:51:34.345Z,5.72
2019-04-30T19:54:03.151Z,4.97
2019-04-30T19:56:32.919Z,5.40
2019-04-30T19:59:05.157Z,5.03
2019-04-30T20:01:32.331Z,5.10
2019-04-30T20:04:01.241Z,6.00
2019-04-30T20:06:30.043Z,4.97
2019-04-30T20:09:00.655Z,6.00
2019-04-30T20:11:29.501Z,5.90
2019-04-30T20:13:58.404Z,4.83
2019-04-30T20:16:27.211Z,5.53
2019-04-30T20:18:56.017Z,5.40
2019-04-30T20:21:28.909Z,5.80
2019-04-30T20:26:24.277Z,6.30
2019-04-30T20:28:53.079Z,6.60
2019-04-30T20:31:21.885Z,6.25
2019-04-30T20:33:53.598Z,5.60
2019-04-30T20:36:21.135Z,5.70
2019-04-30T20:38:54.544Z,6.40
2019-04-30T20:41:24.986Z,6.17
2019-04-30T20:43:53.894Z,6.15
2019-04-30T20:46:31.438Z,6.30
2019-04-30T20:48:53.246Z,6.22
2019-04-30T20:51:22.145Z,6.22
2019-04-30T20:53:51.061Z,5.75
2019-04-30T20:56:19.973Z,5.92
2019-04-30T20:58:57.138Z,6.78
2019-04-30T21:01:19.459Z,6.10
2019-04-30T21:03:48.637Z,5.75
2019-04-30T21:06:19.642Z,6.50
2019-04-30T21:08:47.992Z,6.12
2019-04-30T21:11:16.792Z,5.70
2019-04-30T21:13:45.581Z,5.90
2019-04-30T21:16:14.506Z,6.12
2019-04-30T21:18:43.312Z,6.37
2019-04-30T21:21:12.221Z,6.20
2019-04-30T21:23:41.026Z,6.37
2019-04-30T21:26:09.932Z,6.15
2019-04-30T21:28:39.309Z,6.42
2019-04-30T21:31:26.476Z,5.50
2019-04-30T21:33:58.787Z,5.33
2019-04-30T21:36:28.529Z,5.97
2019-04-30T21:38:59.052Z,5.60
2019-04-30T21:41:29.704Z,6.58
2019-04-30T21:43:58.694Z,5.67
2019-04-30T21:46:29.349Z,5.80
2019-04-30T21:48:58.706Z,6.83
2019-04-30T21:51:27.667Z,5.95
2019-04-30T21:53:56.469Z,5.75
2019-04-30T21:56:25.279Z,6.65
2019-04-30T21:58:54.189Z,6.37
2019-04-30T22:01:24.012Z,5.67
2019-04-30T22:03:52.819Z,5.45
2019-04-30T22:06:21.735Z,5.83
2019-04-30T22:08:50.634Z,6.22
2019-04-30T22:11:19.923Z,6.80
2019-04-30T22:13:49.381Z,5.85
2019-04-30T22:16:20.316Z,6.10
2019-04-30T22:18:49.139Z,5.20
2019-04-30T22:21:18.048Z,5.40
2019-04-30T22:23:48.716Z,5.47
2019-04-30T22:26:17.594Z,5.53
2019-04-30T22:28:46.405Z,5.03
2019-04-30T22:31:15.910Z,5.03
2019-04-30T22:33:44.728Z,5.17
2019-04-30T22:36:15.272Z,5.20
2019-04-30T22:38:45.829Z,5.80
2019-04-30T22:41:14.622Z,5.30
2019-04-30T22:43:43.530Z,5.78
2019-04-30T22:46:13.974Z,4.83
2019-04-30T22:48:42.784Z,5.17
2019-04-30T22:51:11.685Z,4.62
2019-04-30T22:53:40.492Z,4.90
2019-04-30T22:56:09.376Z,5.25
2019-04-30T22:58:38.495Z,5.60
2019-04-30T23:01:24.920Z,4.80
2019-04-30T23:03:55.447Z,5.33
2019-04-30T23:06:24.272Z,5.33
2019-04-30T23:08:53.077Z,5.30
2019-04-30T23:11:21.984Z,5.50
2019-04-30T23:13:50.894Z,4.80
2019-04-30T23:16:19.701Z,6.30
2019-04-30T23:18:48.605Z,5.25
2019-04-30T23:21:17.414Z,4.92
2019-04-30T23:23:46.578Z,5.03
2019-04-30T23:26:15.534Z,5.00
2019-04-30T23:28:44.338Z,5.62
2019-04-30T23:31:13.250Z,5.55
2019-04-30T23:33:42.153Z,4.97
2019-04-30T23:36:10.961Z,5.42
2019-04-30T23:38:39.766Z,5.47
2019-04-30T23:41:08.651Z,5.40
2019-04-30T23:43:37.583Z,5.58
2019-04-30T23:46:06.489Z,5.70
2019-04-30T23:48:35.398Z,5.15
2019-04-30T23:51:04.303Z,5.30
2019-04-30T23:53:33.111Z,5.33
2019-04-30T23:56:02.021Z,5.30
2019-04-30T23:58:30.829Z,5.28
